Time;durP1;ratioP1;P1;durP2;ratioP2;P2;SDS_P1;SDS_P2;PMS_P1;PMS_P2;Temp;Humidity;BMP_temperature;BMP_pressure;BME280_temperature;BME280_humidity;BME280_pressure;Samples;Min_cycle;Max_cycle;Signal;HPM_P1;HPM_P2
2021/06/27 00:01:20;;;;;;;31.60;22.70;;;;;;;24.79;48.42;101477.94;5054654;28;20454;-51
2021/06/27 00:03:48;;;;;;;28.03;20.50;;;;;;;24.62;48.50;101480.69;5054894;28;20489;-47
2021/06/27 00:06:15;;;;;;;33.83;23.50;;;;;;;24.57;49.02;101469.28;5054759;28;20464;-48
2021/06/27 00:08:44;;;;;;;29.93;20.77;;;;;;;24.36;49.45;101479.06;5053714;28;20966;-48
2021/06/27 00:11:14;;;;;;;30.20;22.30;;;;;;;24.51;49.43;101472.84;5055050;28;20489;-47
2021/06/27 00:13:48;;;;;;;30.07;20.97;;;;;;;24.98;48.09;101472.59;5053294;28;20574;-49
2021/06/27 00:16:16;;;;;;;28.10;20.53;;;;;;;25.01;47.82;101467.31;5054599;28;20463;-49
2021/06/27 00:18:44;;;;;;;27.37;18.70;;;;;;;25.03;47.56;101471.66;5053387;28;20494;-51
2021/06/27 00:21:13;;;;;;;33.20;23.00;;;;;;;25.13;47.96;101472.47;5055047;28;20466;-51
2021/06/27 00:23:42;;;;;;;29.37;20.50;;;;;;;24.89;48.09;101469.13;5053702;28;20482;-46
2021/06/27 00:26:13;;;;;;;31.67;21.90;;;;;;;25.05;48.09;101469.00;5054536;28;20779;-52
2021/06/27 00:28:41;;;;;;;29.83;21.43;;;;;;;24.90;47.73;101476.16;5048421;28;20489;-52
2021/06/27 00:31:09;;;;;;;25.80;17.80;;;;;;;24.42;48.89;101471.13;5054958;28;20482;-50
2021/06/27 00:33:37;;;;;;;27.60;19.03;;;;;;;24.80;47.88;101472.72;5053713;28;20482;-50
2021/06/27 00:36:06;;;;;;;28.10;19.80;;;;;;;24.78;48.53;101477.09;5054363;28;20477;-48
2021/06/27 00:38:34;;;;;;;29.63;18.50;;;;;;;24.87;47.17;101476.16;5053418;28;20647;-47
2021/06/27 00:41:02;;;;;;;26.40;19.00;;;;;;;24.81;47.63;101473.56;5054967;28;20479;-49
2021/06/27 00:43:32;;;;;;;28.10;20.50;;;;;;;24.86;48.12;101474.41;5053568;28;20477;-49
2021/06/27 00:46:00;;;;;;;29.60;20.93;;;;;;;24.51;48.52;101484.25;5054396;28;20466;-49
2021/06/27 00:48:28;;;;;;;32.83;20.90;;;;;;;24.63;48.65;101483.34;5053542;28;20915;-49
2021/06/27 00:50:58;;;;;;;27.07;18.67;;;;;;;24.41;48.71;101482.56;5054561;28;20498;-50
2021/06/27 00:53:26;;;;;;;31.80;20.97;;;;;;;24.55;49.04;101477.19;5053604;28;20481;-49
2021/06/27 00:55:57;;;;;;;40.63;25.13;;;;;;;24.62;49.02;101480.69;5054566;28;20458;-46
2021/06/27 00:58:26;;;;;;;38.20;25.97;;;;;;;24.74;48.34;101477.09;5053347;28;20496;-47
2021/06/27 01:00:56;;;;;;;40.27;27.47;;;;;;;24.61;48.87;101479.81;5054510;28;20472;-51
2021/06/27 01:03:24;;;;;;;36.60;25.50;;;;;;;24.56;48.79;101473.69;5051190;28;20552;-50
2021/06/27 01:05:52;;;;;;;32.53;23.50;;;;;;;24.64;48.79;101466.63;5054319;28;20461;-49
2021/06/27 01:08:20;;;;;;;32.10;21.83;;;;;;;24.45;48.79;101470.25;5053283;28;20492;-48
2021/06/27 01:10:49;;;;;;;29.50;19.10;;;;;;;24.70;48.33;101462.19;5054509;28;20521;-52
2021/06/27 01:13:18;;;;;;;26.70;18.50;;;;;;;24.75;48.03;101463.00;5050825;28;20479;-47
2021/06/27 01:15:46;;;;;;;26.23;18.47;;;;;;;24.65;48.56;101460.44;5057393;28;20466;-49
2021/06/27 01:18:16;;;;;;;28.73;20.13;;;;;;;24.73;48.20;101452.50;5053675;28;20511;-47
2021/06/27 01:20:44;;;;;;;24.03;18.17;;;;;;;24.61;48.33;101453.44;5058072;28;20481;-48
2021/06/27 01:23:15;;;;;;;28.47;19.53;;;;;;;24.75;47.62;101455.09;5056500;28;20573;-48
2021/06/27 01:25:44;;;;;;;27.33;17.90;;;;;;;24.77;47.85;101448.94;5057669;28;20470;-45
2021/06/27 01:28:13;;;;;;;39.93;27.20;;;;;;;24.55;48.52;101453.47;5056404;28;20484;-53
2021/06/27 01:30:41;;;;;;;39.83;28.07;;;;;;;24.70;48.26;101454.28;5057687;28;20966;-49
2021/06/27 01:33:11;;;;;;;34.57;22.63;;;;;;;24.47;48.67;101450.00;5056271;28;20495;-49
2021/06/27 01:35:39;;;;;;;30.30;20.83;;;;;;;24.27;49.19;101448.34;5057344;28;20464;-50
2021/06/27 01:38:07;;;;;;;25.60;18.50;;;;;;;24.62;48.48;101459.59;5048037;28;20483;-48
2021/06/27 01:40:36;;;;;;;29.50;18.90;;;;;;;24.44;48.67;101456.16;5057489;28;20479;-47
2021/06/27 01:43:07;;;;;;;30.90;19.90;;;;;;;24.40;48.62;101450.03;5056095;28;20485;-49
2021/06/27 01:45:37;;;;;;;27.93;19.80;;;;;;;24.68;47.84;101449.88;5057256;28;20920;-51
2021/06/27 01:48:06;;;;;;;26.60;18.90;;;;;;;24.59;47.92;101455.22;5056092;28;20487;-50
2021/06/27 01:50:35;;;;;;;29.17;20.40;;;;;;;24.68;47.22;101449.88;5057343;28;20482;-48
2021/06/27 01:53:04;;;;;;;26.27;19.50;;;;;;;24.71;47.88;101448.13;5056034;28;20616;-47
2021/06/27 01:55:32;;;;;;;30.87;20.50;;;;;;;24.58;48.50;101455.22;5057051;28;20455;-47
2021/06/27 01:58:01;;;;;;;30.93;20.27;;;;;;;24.53;48.20;101453.50;5055847;28;20477;-49
2021/06/27 02:00:30;;;;;;;32.40;21.27;;;;;;;24.52;47.66;101453.50;5057300;28;20494;-49
2021/06/27 02:03:00;;;;;;;29.60;21.60;;;;;;;24.63;47.89;101454.31;5056182;28;20474;-51
2021/06/27 02:05:28;;;;;;;27.80;19.90;;;;;;;24.76;47.21;101448.97;5056862;28;20463;-51
2021/06/27 02:07:57;;;;;;;30.30;22.63;;;;;;;24.85;47.22;101450.69;5051427;28;20487;-47
2021/06/27 02:10:27;;;;;;;35.50;23.33;;;;;;;25.04;46.84;101441.75;5057106;28;20481;-50
2021/06/27 02:12:56;;;;;;;35.47;22.70;;;;;;;24.93;47.62;101438.31;5055766;28;20492;-46
2021/06/27 02:15:25;;;;;;;34.30;22.43;;;;;;;24.89;47.23;101439.22;5056796;28;20765;-48
2021/06/27 02:17:55;;;;;;;31.83;21.23;;;;;;;24.89;46.58;101437.47;5055807;28;20486;-48
2021/06/27 02:20:25;;;;;;;31.03;20.93;;;;;;;24.60;47.67;101440.28;5056680;28;20486;-48
2021/06/27 02:22:54;;;;;;;27.33;19.47;;;;;;;24.70;47.17;101435.81;5055563;28;20482;-47
2021/06/27 02:25:21;;;;;;;32.07;21.93;;;;;;;24.32;48.13;101433.38;5056427;28;20462;-47
2021/06/27 02:27:53;;;;;;;32.20;22.17;;;;;;;24.62;47.01;101431.44;5055056;28;20798;-45
2021/06/27 02:30:22;;;;;;;32.97;22.60;;;;;;;24.45;48.07;101430.69;5056452;28;20481;-50
2021/06/27 02:32:51;;;;;;;28.77;20.73;;;;;;;24.49;47.70;101427.13;5055259;28;20477;-46
2021/06/27 02:35:18;;;;;;;33.30;22.87;;;;;;;24.32;48.31;101425.47;5056695;28;20474;-45
2021/06/27 02:37:46;;;;;;;32.30;22.00;;;;;;;24.15;48.85;101425.56;5055373;28;20777;-45
2021/06/27 02:40:15;;;;;;;36.30;25.10;;;;;;;24.27;48.42;101427.25;5056401;28;20795;-46
2021/06/27 02:42:42;;;;;;;30.90;21.00;;;;;;;24.36;48.19;101426.34;5055197;28;20477;-48
2021/06/27 02:45:11;;;;;;;29.73;21.10;;;;;;;24.21;48.57;101427.28;5056416;28;20814;-49
2021/06/27 02:47:39;;;;;;;27.87;20.10;;;;;;;24.41;48.29;101425.41;5055076;28;20484;-48
2021/06/27 02:50:10;;;;;;;30.60;22.03;;;;;;;24.21;48.76;101427.28;5056328;28;20506;-49
2021/06/27 02:52:38;;;;;;;30.00;21.40;;;;;;;24.62;48.05;101423.53;5054205;28;20502;-49
2021/06/27 02:55:08;;;;;;;57.07;36.07;;;;;;;24.60;48.16;101425.31;5061910;28;20584;-47
2021/06/27 02:57:35;;;;;;;63.97;40.10;;;;;;;24.27;49.43;101432.53;5042714;28;20486;-46
2021/06/27 03:00:05;;;;;;;41.07;27.10;;;;;;;24.39;48.90;101432.47;5055994;28;20916;-49
2021/06/27 03:02:33;;;;;;;37.90;26.60;;;;;;;24.55;48.26;101427.09;5054344;28;20486;-46
2021/06/27 03:05:01;;;;;;;33.70;22.63;;;;;;;24.60;48.18;101430.59;5062482;28;20463;-48
2021/06/27 03:07:29;;;;;;;30.93;21.73;;;;;;;24.51;48.22;101430.66;5054450;28;20482;-47
2021/06/27 03:09:57;;;;;;;36.50;21.47;;;;;;;24.38;48.59;101435.09;5055826;28;20481;-48
2021/06/27 03:12:25;;;;;;;29.97;21.17;;;;;;;24.25;49.12;101436.94;5054131;28;20487;-51
2021/06/27 03:14:52;;;;;;;55.67;37.33;;;;;;;24.44;48.58;101432.44;5056133;28;20451;-46
2021/06/27 03:17:20;;;;;;;45.43;28.63;;;;;;;24.57;48.85;101430.63;5054454;28;20487;-48
2021/06/27 03:19:47;;;;;;;46.87;30.90;;;;;;;24.73;48.16;101438.41;5055671;28;20947;-51
2021/06/27 03:22:15;;;;;;;64.40;38.30;;;;;;;24.74;47.88;101432.25;5054281;28;20863;-50
2021/06/27 03:24:44;;;;;;;52.40;36.00;;;;;;;24.79;47.94;101426.06;5055633;28;20462;-47
2021/06/27 03:27:11;;;;;;;31.47;21.67;;;;;;;24.81;47.70;101426.97;5053957;28;20475;-46
2021/06/27 03:29:39;;;;;;;30.70;22.03;;;;;;;24.92;47.63;101428.66;5055592;28;20787;-49
2021/06/27 03:32:07;;;;;;;34.23;20.70;;;;;;;24.92;47.34;101432.16;5054338;28;20476;-48
2021/06/27 03:34:35;;;;;;;26.97;19.70;;;;;;;24.86;47.72;101426.91;5055534;28;20465;-48
2021/06/27 03:37:03;;;;;;;29.60;20.20;;;;;;;24.79;48.26;101420.81;5043582;28;20492;-47
2021/06/27 03:39:31;;;;;;;30.30;20.40;;;;;;;24.99;47.59;101429.47;5065854;28;20786;-48
2021/06/27 03:42:04;;;;;;;27.97;19.03;;;;;;;24.70;48.10;101430.53;5050320;28;20480;-45
2021/06/27 03:44:32;;;;;;;24.90;18.87;;;;;;;24.85;48.22;101427.81;5055194;28;20465;-48
2021/06/27 03:46:59;;;;;;;27.63;20.77;;;;;;;24.94;47.87;101433.03;5053576;28;20549;-47
2021/06/27 03:49:27;;;;;;;25.50;18.90;;;;;;;24.73;48.27;101434.03;5055268;28;20490;-47
2021/06/27 03:51:54;;;;;;;25.03;18.20;;;;;;;24.65;48.61;101427.91;5047980;28;20473;-49
2021/06/27 03:54:22;;;;;;;27.87;19.60;;;;;;;24.90;48.17;101428.66;5066877;28;20466;-47
2021/06/27 03:56:50;;;;;;;32.23;19.40;;;;;;;24.73;48.47;101430.50;5053314;28;20946;-50
2021/06/27 03:59:18;;;;;;;23.60;17.87;;;;;;;24.75;48.31;101431.34;5055190;28;20478;-50
2021/06/27 04:01:46;;;;;;;26.83;18.50;;;;;;;25.15;47.62;101422.28;5046756;28;20783;-51
2021/06/27 04:04:14;;;;;;;26.27;18.97;;;;;;;25.18;47.38;101425.78;5067171;28;20558;-49
2021/06/27 04:06:42;;;;;;;25.17;19.20;;;;;;;25.07;47.91;101427.66;5053688;28;20476;-47
2021/06/27 04:09:09;;;;;;;25.00;17.97;;;;;;;25.31;47.48;101423.03;5055030;28;20479;-48
2021/06/27 04:11:37;;;;;;;26.23;18.67;;;;;;;25.30;46.79;101432.72;5053786;28;20461;-51
2021/06/27 04:14:04;;;;;;;25.50;17.63;;;;;;;25.18;47.28;101441.63;5054631;28;20486;-50
2021/06/27 04:16:33;;;;;;;27.00;19.77;;;;;;;25.24;47.41;101435.44;5053506;28;20466;-51
2021/06/27 04:19:01;;;;;;;25.47;19.00;;;;;;;25.38;46.50;101432.63;5054602;28;20477;-50
2021/06/27 04:21:29;;;;;;;32.63;20.97;;;;;;;25.16;47.21;101435.47;5050214;28;20466;-50
2021/06/27 04:23:56;;;;;;;33.57;22.13;;;;;;;25.13;47.29;101432.00;5054727;28;20492;-49
2021/06/27 04:26:25;;;;;;;35.40;22.23;;;;;;;25.19;47.45;101435.47;5041283;28;20460;-48
2021/06/27 04:28:53;;;;;;;31.40;21.90;;;;;;;24.99;48.10;101433.00;5069343;28;20489;-49
2021/06/27 04:31:24;;;;;;;31.60;21.67;;;;;;;24.74;48.89;101432.25;5054678;28;20457;-49
2021/06/27 04:33:53;;;;;;;30.83;21.10;;;;;;;25.20;47.66;101431.06;5053524;28;20597;-49
2021/06/27 04:36:23;;;;;;;31.77;21.80;;;;;;;25.59;46.32;101436.00;5054253;28;20476;-46
2021/06/27 04:38:51;;;;;;;30.60;20.80;;;;;;;25.54;46.41;101435.19;5054158;28;20468;-45
2021/06/27 04:41:19;;;;;;;32.10;21.70;;;;;;;25.29;47.32;101436.28;5054624;28;20462;-47
2021/06/27 04:43:52;;;;;;;32.40;21.67;;;;;;;25.31;47.31;101428.31;5054210;28;20453;-48
2021/06/27 04:46:20;;;;;;;32.70;22.90;;;;;;;25.62;46.49;101428.03;5054378;28;20470;-48
2021/06/27 04:48:51;;;;;;;27.47;21.13;;;;;;;25.63;46.50;101427.13;5056908;28;20473;-48
2021/06/27 04:51:21;;;;;;;30.83;21.13;;;;;;;25.25;47.58;101426.63;5058587;28;20730;-47
2021/06/27 04:53:49;;;;;;;33.37;21.27;;;;;;;25.65;46.74;101433.31;5057823;28;20491;-48
2021/06/27 04:56:16;;;;;;;33.73;21.10;;;;;;;25.67;46.18;101436.78;5057856;28;20461;-53
2021/06/27 04:58:44;;;;;;;33.30;20.77;;;;;;;25.84;46.04;101433.09;5056564;28;20477;-47
2021/06/27 05:01:11;;;;;;;33.47;22.30;;;;;;;25.84;46.55;101439.25;5058485;28;20457;-46
2021/06/27 05:03:39;;;;;;;29.43;19.83;;;;;;;25.98;46.26;101441.72;5063260;28;21005;-46
2021/06/27 05:06:06;;;;;;;33.77;22.67;;;;;;;26.05;45.98;101441.66;5057809;28;20470;-48
2021/06/27 05:08:35;;;;;;;34.03;23.60;;;;;;;26.04;45.53;101438.13;5056902;28;20480;-50
2021/06/27 05:11:03;;;;;;;34.93;25.03;;;;;;;26.12;45.03;101438.03;5057971;28;20797;-46
2021/06/27 05:13:30;;;;;;;29.67;20.53;;;;;;;26.27;45.03;101432.59;5056681;28;20493;-50
2021/06/27 05:15:58;;;;;;;30.70;20.50;;;;;;;26.26;45.34;101435.25;5057405;28;20464;-51
2021/06/27 05:18:26;;;;;;;30.53;20.87;;;;;;;26.44;45.54;101433.25;5063009;28;20490;-48
2021/06/27 05:20:53;;;;;;;31.93;21.00;;;;;;;26.39;45.35;101433.28;5057790;28;20485;-50
2021/06/27 05:23:21;;;;;;;79.93;50.60;;;;;;;26.56;45.39;101426.00;5056572;28;20499;-49
2021/06/27 05:25:50;;;;;;;142.97;94.37;;;;;;;26.60;45.41;101425.97;5057418;28;20462;-49
2021/06/27 05:28:17;;;;;;;171.60;107.93;;;;;;;26.69;45.05;101431.09;5052604;28;20492;-49
2021/06/27 05:30:45;;;;;;;46.87;30.83;;;;;;;26.49;45.89;101419.06;5057734;28;20473;-45
2021/06/27 05:33:13;;;;;;;41.00;28.13;;;;;;;26.60;45.37;101431.25;5056274;28;20489;-51
2021/06/27 05:35:40;;;;;;;34.20;23.10;;;;;;;26.56;45.37;101431.28;5057276;28;20473;-49
2021/06/27 05:38:08;;;;;;;36.00;23.77;;;;;;;26.61;44.77;101427.72;5061276;28;20485;-51
2021/06/27 05:40:36;;;;;;;38.83;27.87;;;;;;;26.29;45.82;101433.44;5059357;28;20487;-47
2021/06/27 05:43:06;;;;;;;63.03;42.67;;;;;;;26.60;45.36;101428.63;5056340;28;20481;-50
2021/06/27 05:45:33;;;;;;;42.37;30.47;;;;;;;26.80;44.85;101431.81;5057322;28;20461;-47
2021/06/27 05:48:01;;;;;;;38.03;27.33;;;;;;;27.07;44.68;101434.94;5055533;28;20492;-50
2021/06/27 05:50:29;;;;;;;39.70;25.70;;;;;;;27.33;43.66;101432.75;5057159;28;20478;-49
2021/06/27 05:52:56;;;;;;;34.20;23.93;;;;;;;27.39;43.32;101434.41;5052634;28;20480;-49
2021/06/27 05:55:24;;;;;;;32.50;22.90;;;;;;;27.23;43.36;101435.56;5057102;28;20504;-48
2021/06/27 05:57:51;;;;;;;30.80;21.27;;;;;;;26.24;46.30;101432.63;5055747;28;20948;-51
2021/06/27 06:00:21;;;;;;;35.23;24.50;;;;;;;26.54;44.58;101425.16;5056431;28;20482;-52
2021/06/27 06:02:49;;;;;;;29.67;21.27;;;;;;;26.39;45.23;101428.00;5057500;28;20491;-47
2021/06/27 06:05:16;;;;;;;32.13;22.10;;;;;;;26.22;45.86;101423.84;5061452;28;20465;-47
2021/06/27 06:07:44;;;;;;;33.50;22.37;;;;;;;26.68;44.63;101429.38;5054419;28;20557;-51
2021/06/27 06:10:12;;;;;;;34.53;22.60;;;;;;;26.60;44.62;101424.19;5057157;28;20488;-48
2021/06/27 06:12:39;;;;;;;29.10;21.07;;;;;;;26.35;45.04;101423.69;5055822;28;20493;-50
2021/06/27 06:15:08;;;;;;;32.20;23.53;;;;;;;26.27;44.66;101431.72;5056927;28;20971;-52
2021/06/27 06:17:37;;;;;;;34.37;23.63;;;;;;;26.78;44.13;101424.81;5055208;28;20483;-47
2021/06/27 06:20:06;;;;;;;32.43;22.93;;;;;;;26.58;43.05;101430.38;5056740;28;20938;-52
2021/06/27 06:22:33;;;;;;;28.87;20.57;;;;;;;26.49;43.70;101434.94;5055876;28;20504;-47
2021/06/27 06:25:01;;;;;;;27.00;19.37;;;;;;;26.45;44.31;101427.91;5057009;28;20489;-47
2021/06/27 06:27:28;;;;;;;28.30;19.20;;;;;;;26.69;44.11;101428.47;5054868;28;20482;-51
2021/06/27 06:29:56;;;;;;;32.00;21.03;;;;;;;27.00;42.22;101430.66;5056631;28;20485;-48
2021/06/27 06:32:23;;;;;;;36.77;22.27;;;;;;;26.83;43.35;101428.25;5054877;28;20494;-49
2021/06/27 06:34:52;;;;;;;27.90;18.03;;;;;;;26.94;43.36;101428.09;5056817;28;20487;-48
2021/06/27 06:37:20;;;;;;;30.63;21.10;;;;;;;26.37;44.44;101433.34;5053349;28;20494;-51
2021/06/27 06:39:48;;;;;;;34.80;19.50;;;;;;;26.83;44.14;101430.91;5064552;28;20483;-50
2021/06/27 06:42:15;;;;;;;34.33;24.23;;;;;;;27.23;43.56;101437.34;5052999;28;20486;-51
2021/06/27 06:44:43;;;;;;;25.20;17.27;;;;;;;27.49;42.63;101442.16;5064904;28;20455;-50
2021/06/27 06:47:10;;;;;;;27.73;19.47;;;;;;;27.71;41.43;101443.56;5050247;28;20480;-47
2021/06/27 06:49:38;;;;;;;29.13;17.90;;;;;;;27.00;43.64;101438.59;5056584;28;20498;-46
2021/06/27 06:52:07;;;;;;;23.70;17.30;;;;;;;26.75;42.00;101441.59;5053811;28;20485;-48
2021/06/27 06:54:35;;;;;;;24.83;17.43;;;;;;;26.72;42.10;101441.66;5056282;28;20491;-49
2021/06/27 06:57:03;;;;;;;38.63;24.73;;;;;;;27.40;41.80;101438.81;5052684;28;20472;-49
2021/06/27 06:59:30;;;;;;;26.20;18.77;;;;;;;27.49;41.50;101436.00;5056025;28;20936;-52
2021/06/27 07:01:58;;;;;;;26.03;17.73;;;;;;;27.59;41.69;101440.22;5055026;28;20486;-45
2021/06/27 07:04:26;;;;;;;25.10;16.63;;;;;;;27.51;41.84;101436.84;5056052;28;20458;-46
2021/06/27 07:06:53;;;;;;;24.70;16.87;;;;;;;27.08;41.42;101441.13;5049300;28;20471;-47
2021/06/27 07:09:22;;;;;;;25.53;16.73;;;;;;;26.42;42.39;101442.06;5055979;28;20806;-51
2021/06/27 07:11:50;;;;;;;26.83;18.53;;;;;;;26.21;43.45;101437.94;5046651;28;20536;-49
2021/06/27 07:14:17;;;;;;;33.37;21.30;;;;;;;26.76;43.10;101438.06;5068064;28;20486;-51
2021/06/27 07:16:45;;;;;;;29.60;19.23;;;;;;;26.88;43.13;101438.75;5054474;28;20481;-46
2021/06/27 07:19:13;;;;;;;26.70;19.67;;;;;;;27.54;41.40;101431.50;5055546;28;20565;-45
2021/06/27 07:21:43;;;;;;;27.20;18.40;;;;;;;27.49;42.11;101436.84;5048132;28;20460;-50
2021/06/27 07:24:11;;;;;;;30.40;20.30;;;;;;;27.30;42.01;101430.16;5068269;28;20455;-49
2021/06/27 07:26:39;;;;;;;28.30;19.40;;;;;;;27.17;42.29;101434.81;5054406;28;20461;-48
2021/06/27 07:29:07;;;;;;;33.27;20.93;;;;;;;27.26;42.26;101428.47;5055693;28;20479;-47
2021/06/27 07:31:34;;;;;;;29.13;18.93;;;;;;;28.06;40.51;101427.84;5054747;28;20745;-47
2021/06/27 07:34:02;;;;;;;25.17;15.33;;;;;;;27.51;42.38;101431.53;5055256;28;20483;-45
2021/06/27 07:36:30;;;;;;;25.77;18.10;;;;;;;27.78;41.10;101431.94;5054024;28;20467;-46
2021/06/27 07:38:57;;;;;;;22.33;12.93;;;;;;;27.38;39.09;101432.66;5055260;28;20483;-48
2021/06/27 07:41:28;;;;;;;21.27;14.17;;;;;;;27.47;39.45;101425.41;5051705;28;20435;-49
2021/06/27 07:43:57;;;;;;;20.77;13.77;;;;;;;27.41;39.85;101424.66;5055431;28;20488;-47
2021/06/27 07:46:25;;;;;;;18.80;14.10;;;;;;;27.63;40.02;101428.69;5053996;28;20485;-49
2021/06/27 07:48:52;;;;;;;17.87;11.57;;;;;;;28.01;40.51;101427.94;5055075;28;20487;-48
2021/06/27 07:51:21;;;;;;;17.27;11.70;;;;;;;27.91;40.37;101427.25;5055278;28;20464;-51
2021/06/27 07:53:50;;;;;;;23.40;13.27;;;;;;;27.08;41.42;101431.38;5055024;28;20470;-48
2021/06/27 07:56:17;;;;;;;19.30;13.63;;;;;;;27.46;40.48;101433.38;5054916;28;20490;-48
2021/06/27 07:58:55;;;;;;;19.33;12.23;;;;;;;27.52;40.89;101430.63;5054872;28;20459;-48
2021/06/27 08:01:26;;;;;;;17.10;12.20;;;;;;;28.57;38.73;101432.06;5054230;28;20513;-48
2021/06/27 08:03:54;;;;;;;20.97;14.27;;;;;;;27.95;39.67;101433.38;5054988;28;20940;-50
2021/06/27 08:06:28;;;;;;;17.53;12.53;;;;;;;27.88;40.27;101428.19;5052637;28;20777;-54
2021/06/27 08:08:56;;;;;;;23.37;15.73;;;;;;;28.57;37.71;101422.31;5055156;28;20487;-48
2021/06/27 08:11:29;;;;;;;20.40;15.03;;;;;;;28.38;38.47;101421.88;5044156;28;20502;-47
2021/06/27 08:13:56;;;;;;;20.93;13.03;;;;;;;28.61;39.01;101417.78;5069806;28;20491;-49
2021/06/27 08:16:27;;;;;;;19.90;13.00;;;;;;;29.09;38.24;101421.09;5053405;28;20486;-48
2021/06/27 08:18:55;;;;;;;17.10;11.43;;;;;;;28.81;38.69;101413.81;5054831;28;20974;-49
2021/06/27 08:21:22;;;;;;;16.30;12.53;;;;;;;27.82;41.44;101428.31;5053762;28;20834;-52
2021/06/27 08:23:50;;;;;;;20.23;14.70;;;;;;;28.08;39.70;101421.59;5057842;28;20494;-50
2021/06/27 08:26:18;;;;;;;19.70;13.50;;;;;;;28.59;39.04;101430.22;5058643;28;20462;-48
2021/06/27 08:28:50;;;;;;;23.80;15.30;;;;;;;28.36;39.21;101423.69;5058355;28;20502;-49
2021/06/27 08:31:18;;;;;;;20.10;14.60;;;;;;;28.41;39.58;101428.88;5059213;28;20458;-49
2021/06/27 08:33:47;;;;;;;19.17;12.47;;;;;;;28.82;38.72;101420.84;5057511;28;20475;-47
2021/06/27 08:36:14;;;;;;;19.87;13.40;;;;;;;29.29;37.91;101415.28;5058284;28;20483;-49
2021/06/27 08:38:42;;;;;;;18.03;13.57;;;;;;;28.86;37.53;101403.94;5059731;28;20478;-52
2021/06/27 08:41:09;;;;;;;18.13;12.17;;;;;;;28.54;38.55;101408.22;5058885;28;20459;-52
2021/06/27 08:43:37;;;;;;;19.30;13.53;;;;;;;28.20;39.78;101403.69;5057346;28;20479;-51
2021/06/27 08:46:08;;;;;;;19.67;12.00;;;;;;;28.68;39.08;101397.28;5058593;28;20770;-50
2021/06/27 08:48:38;;;;;;;16.23;10.20;;;;;;;29.15;39.01;101402.34;5057474;28;20483;-48
2021/06/27 08:51:08;;;;;;;16.60;10.80;;;;;;;29.42;39.22;101409.63;5058763;28;20462;-50
2021/06/27 08:53:39;;;;;;;16.60;10.50;;;;;;;29.69;38.01;101408.00;5057374;28;20550;-48
2021/06/27 08:56:08;;;;;;;20.70;12.30;;;;;;;29.62;37.20;101406.41;5058073;28;20491;-51
2021/06/27 08:58:37;;;;;;;22.70;15.87;;;;;;;29.68;37.56;101406.25;5057143;28;20569;-50
2021/06/27 09:01:06;;;;;;;18.90;11.47;;;;;;;29.86;37.41;101406.63;5058746;28;20475;-52
2021/06/27 09:03:34;;;;;;;18.97;12.03;;;;;;;30.33;36.88;101394.66;5057093;28;20506;-51
2021/06/27 09:06:02;;;;;;;18.73;11.93;;;;;;;29.92;37.96;101401.13;5058078;28;20451;-51
2021/06/27 09:08:31;;;;;;;22.60;12.03;;;;;;;30.25;37.33;101394.88;5056805;28;20479;-50
2021/06/27 09:11:12;;;;;;;17.03;11.37;;;;;;;29.43;38.95;101398.94;5058246;28;20543;-49
2021/06/27 09:13:41;;;;;;;22.00;13.87;;;;;;;29.49;37.95;101390.81;5055938;28;20490;-48
2021/06/27 09:16:20;;;;;;;18.40;12.77;;;;;;;29.42;37.83;101386.56;5057867;28;20483;-49
2021/06/27 09:18:48;;;;;;;18.17;13.67;;;;;;;29.62;37.14;101388.69;5057584;28;20577;-50
2021/06/27 09:21:16;;;;;;;20.30;13.93;;;;;;;29.97;36.81;101391.25;5058136;28;20491;-48
2021/06/27 09:23:47;;;;;;;18.27;13.00;;;;;;;29.42;37.98;101389.22;5056909;28;20486;-52
2021/06/27 09:26:26;;;;;;;20.40;14.03;;;;;;;29.88;37.16;101386.22;5057671;28;20881;-47
2021/06/27 09:28:54;;;;;;;21.90;15.37;;;;;;;30.08;37.12;101382.97;5057414;28;20470;-50
2021/06/27 09:31:45;;;;;;;17.63;11.50;;;;;;;30.00;38.01;101388.47;5056648;28;20459;-49
2021/06/27 09:34:14;;;;;;;17.50;11.80;;;;;;;29.89;37.32;101394.13;5037282;28;20456;-49
2021/06/27 09:36:45;;;;;;;18.07;12.37;;;;;;;30.03;37.12;101395.50;5056241;28;20479;-49
2021/06/27 09:39:16;;;;;;;17.57;11.10;;;;;;;30.08;37.53;101387.41;5057695;28;20476;-50
2021/06/27 09:41:50;;;;;;;18.70;10.57;;;;;;;30.35;37.38;101380.34;5056516;28;20784;-47
2021/06/27 09:44:18;;;;;;;19.40;11.33;;;;;;;31.05;35.95;101378.09;5057847;28;20459;-49
2021/06/27 09:46:49;;;;;;;17.50;12.00;;;;;;;30.96;35.92;101381.94;5056157;28;20471;-49
2021/06/27 09:49:18;;;;;;;19.40;12.83;;;;;;;30.30;37.16;101377.84;5057675;28;20483;-52
2021/06/27 09:51:52;;;;;;;18.20;10.70;;;;;;;29.94;37.95;101380.69;5055428;28;20554;-50
2021/06/27 09:54:23;;;;;;;16.40;12.13;;;;;;;30.58;36.70;101374.31;5057408;28;20991;-51
2021/06/27 09:56:51;;;;;;;23.83;13.27;;;;;;;30.67;36.61;101374.91;5054907;28;20483;-50
2021/06/27 09:59:19;;;;;;;19.43;13.03;;;;;;;30.61;36.64;101383.09;5057490;28;20769;-46
2021/06/27 10:01:47;;;;;;;19.67;13.70;;;;;;;31.17;35.23;101381.25;5056266;28;20784;-48
2021/06/27 10:04:25;;;;;;;13.63;9.57;;;;;;;30.35;38.01;101390.13;5057376;28;20461;-48
2021/06/27 10:06:54;;;;;;;18.60;11.63;;;;;;;30.21;38.19;101378.16;5055657;28;20482;-50
2021/06/27 10:09:24;;;;;;;18.20;11.80;;;;;;;30.45;36.29;101381.81;5057377;28;20494;-47
2021/06/27 10:11:58;;;;;;;15.77;11.00;;;;;;;30.92;36.76;101385.63;5053624;28;20475;-49
2021/06/27 10:14:27;;;;;;;15.17;11.07;;;;;;;30.95;36.24;101384.63;5057111;28;20459;-49
2021/06/27 10:16:56;;;;;;;17.97;13.03;;;;;;;30.70;35.77;101381.03;5055329;28;20951;-49
2021/06/27 10:19:25;;;;;;;15.80;10.43;;;;;;;30.91;35.89;101383.03;5056857;28;20495;-50
2021/06/27 10:21:52;;;;;;;16.93;10.73;;;;;;;30.17;36.24;101390.66;5056029;28;20456;-47
2021/06/27 10:24:20;;;;;;;19.67;12.37;;;;;;;30.56;35.24;101389.44;5056921;28;20908;-52
2021/06/27 10:26:49;;;;;;;12.97;9.70;;;;;;;31.17;35.16;101381.25;5055247;28;20472;-47
2021/06/27 10:29:18;;;;;;;13.73;9.37;;;;;;;31.57;34.45;101384.28;5056646;28;20952;-49
2021/06/27 10:31:46;;;;;;;20.37;10.70;;;;;;;30.97;35.03;101382.81;5055620;28;20482;-50
2021/06/27 10:34:14;;;;;;;16.40;11.40;;;;;;;30.29;37.36;101380.53;5057110;28;20471;-48
2021/06/27 10:36:44;;;;;;;13.20;8.40;;;;;;;31.19;34.61;101376.72;5055163;28;20484;-45
2021/06/27 10:39:13;;;;;;;10.47;7.90;;;;;;;31.19;34.94;101382.03;5056906;28;20488;-53
2021/06/27 10:41:54;;;;;;;11.20;7.90;;;;;;;31.08;35.72;101382.44;5055563;28;20459;-50
2021/06/27 10:44:24;;;;;;;13.97;9.47;;;;;;;31.26;35.21;101370.25;5056393;28;20463;-49
2021/06/27 10:46:53;;;;;;;12.10;8.87;;;;;;;31.48;35.40;101370.34;5054414;28;20475;-49
2021/06/27 10:49:50;;;;;;;12.93;8.27;;;;;;;31.41;35.35;101370.66;5054777;28;20548;-46
2021/06/27 10:52:19;;;;;;;12.47;8.40;;;;;;;31.58;35.20;101367.38;5055006;28;20491;-46
2021/06/27 10:55:15;;;;;;;76.93;23.10;;;;;;;31.69;33.86;101370.50;5056220;28;20452;-49
2021/06/27 10:58:05;;;;;;;10.10;7.50;;;;;;;32.07;33.89;101364.63;5054395;28;20970;-49
2021/06/27 11:01:08;;;;;;;38.47;14.67;;;;;;;30.96;35.25;101363.28;5056071;28;20479;-45
2021/06/27 11:03:39;;;;;;;19.40;9.67;;;;;;;31.81;33.59;101358.47;5055012;28;20483;-49
2021/06/27 11:06:09;;;;;;;20.87;11.17;;;;;;;31.75;33.51;101364.06;5055350;28;20482;-49
2021/06/27 11:08:39;;;;;;;18.93;10.07;;;;;;;31.17;34.57;101352.78;5054711;28;20487;-47
2021/06/27 11:11:10;;;;;;;13.53;9.30;;;;;;;31.04;35.06;101355.03;5056170;28;20900;-47
2021/06/27 11:13:40;;;;;;;13.23;8.43;;;;;;;31.55;33.82;101352.34;5054858;28;20786;-45
2021/06/27 11:16:12;;;;;;;32.73;13.10;;;;;;;31.63;32.78;101358.25;5055651;28;20462;-47
2021/06/27 11:18:43;;;;;;;21.87;10.53;;;;;;;31.64;32.55;101356.47;5054594;28;20487;-48